Time;durP1;ratioP1;P1;durP2;ratioP2;P2;SDS_P1;SDS_P2;PMS_P1;PMS_P2;Temp;Humidity;BMP_temperature;BMP_pressure;BME280_temperature;BME280_humidity;BME280_pressure;Samples;Min_cycle;Max_cycle;Signal;HPM_P1;HPM_P2
2022/11/30 00:01:34;;;;;;;6.88;0.98;;;;;;;7.70;100.00;100615.09;4886600;29;20039;-89
2022/11/30 00:04:02;;;;;;;3.97;0.85;;;;;;;7.71;100.00;100624.66;4901408;29;20039;-89
2022/11/30 00:06:32;;;;;;;6.15;1.00;;;;;;;7.75;100.00;100622.63;4901294;29;20039;-90
2022/11/30 00:09:01;;;;;;;4.28;1.00;;;;;;;7.78;100.00;100628.50;4914269;29;20575;-89
2022/11/30 00:11:31;;;;;;;7.20;1.52;;;;;;;7.82;100.00;100627.28;4933070;29;20055;-90
2022/11/30 00:13:59;;;;;;;6.65;1.42;;;;;;;7.84;100.00;100624.53;4917772;29;20031;-90
2022/11/30 00:16:27;;;;;;;13.45;1.98;;;;;;;7.86;100.00;100619.16;4901960;29;20036;-89
2022/11/30 00:18:55;;;;;;;11.75;1.75;;;;;;;7.84;100.00;100628.94;4916386;29;20543;-90
2022/11/30 00:21:26;;;;;;;7.03;1.55;;;;;;;7.87;100.00;100629.56;4904511;29;20058;-90
2022/11/30 00:23:56;;;;;;;7.80;1.00;;;;;;;7.89;100.00;100626.78;4886800;29;20043;-90
2022/11/30 00:26:26;;;;;;;5.00;1.33;;;;;;;7.91;100.00;100633.63;4899728;29;20388;-88
2022/11/30 00:28:56;;;;;;;6.50;1.20;;;;;;;7.93;100.00;100636.13;4900515;29;20078;-89
2022/11/30 00:31:26;;;;;;;7.88;1.02;;;;;;;7.93;100.00;100623.78;4884507;29;20031;-90
2022/11/30 00:33:54;;;;;;;8.00;1.50;;;;;;;7.96;100.00;100633.25;4899197;29;20564;-90
2022/11/30 00:36:23;;;;;;;10.10;1.20;;;;;;;7.97;100.00;100623.53;4918853;29;20094;-94
2022/11/30 00:38:50;;;;;;;5.20;0.98;;;;;;;7.99;100.00;100632.16;4884915;29;20114;-94
2022/11/30 00:41:19;;;;;;;7.82;1.40;;;;;;;7.98;100.00;100631.31;4889980;29;20027;-94
2022/11/30 00:43:47;;;;;;;15.20;1.55;;;;;;;7.99;100.00;100625.13;4883588;29;20048;-94
2022/11/30 00:46:15;;;;;;;7.50;1.25;;;;;;;7.98;100.00;100628.69;4908827;29;20031;-90
2022/11/30 00:48:45;;;;;;;4.38;0.85;;;;;;;7.98;100.00;100628.69;4901597;29;20084;-90
2022/11/30 00:51:15;;;;;;;5.90;1.10;;;;;;;7.97;100.00;100632.28;4892218;29;20063;-89
2022/11/30 00:53:48;;;;;;;7.60;1.38;;;;;;;7.93;100.00;100630.88;4909020;29;20078;-89
2022/11/30 00:56:18;;;;;;;6.85;0.95;;;;;;;7.90;100.00;100631.13;4908554;29;20047;-94
2022/11/30 00:58:48;;;;;;;7.30;1.20;;;;;;;7.86;100.00;100625.25;4917744;29;20102;-93
2022/11/30 01:01:18;;;;;;;7.35;1.40;;;;;;;7.83;100.00;100633.41;4899868;29;20038;-93
2022/11/30 01:03:47;;;;;;;10.32;1.48;;;;;;;7.82;100.00;100634.34;4916828;29;20098;-93
2022/11/30 01:06:16;;;;;;;9.70;1.95;;;;;;;7.80;100.00;100626.56;4886484;29;20043;-90
2022/11/30 01:08:44;;;;;;;13.00;1.58;;;;;;;7.77;100.00;100636.50;4921641;29;20046;-89
2022/11/30 01:11:22;;;;;;;8.35;1.52;;;;;;;7.79;100.00;100639.84;4903629;29;20043;-89
2022/11/30 01:13:53;;;;;;;12.38;1.70;;;;;;;7.77;100.00;100633.88;4900422;29;20458;-89
2022/11/30 01:16:25;;;;;;;6.30;1.20;;;;;;;7.78;100.00;100633.75;4916931;29;20107;-89
2022/11/30 01:18:56;;;;;;;17.75;1.73;;;;;;;7.79;100.00;100629.31;4912356;29;20054;-89
2022/11/30 01:21:27;;;;;;;5.10;0.98;;;;;;;7.80;100.00;100639.72;4933607;29;20082;-93
2022/11/30 01:23:57;;;;;;;10.75;1.25;;;;;;;7.79;100.00;100632.78;4921958;29;20043;-92
2022/11/30 01:26:26;;;;;;;7.63;1.40;;;;;;;7.81;100.00;100628.25;4934841;29;20039;-90
2022/11/30 01:28:56;;;;;;;8.23;1.10;;;;;;;7.82;100.00;100636.97;4905471;29;20039;-89
2022/11/30 01:31:26;;;;;;;8.00;1.33;;;;;;;7.80;100.00;100631.00;4910941;29;20469;-89
2022/11/30 01:33:56;;;;;;;13.60;1.50;;;;;;;7.81;100.00;100641.41;4905814;29;20578;-90
2022/11/30 01:36:26;;;;;;;2.63;0.90;;;;;;;7.77;100.00;100629.44;4902320;29;20112;-89
2022/11/30 01:38:57;;;;;;;8.75;1.20;;;;;;;7.72;100.00;100641.28;4903277;29;20497;-89
2022/11/30 01:41:32;;;;;;;10.73;1.45;;;;;;;7.66;100.00;100635.53;4920985;29;20043;-89
2022/11/30 01:44:06;;;;;;;9.50;1.38;;;;;;;7.66;100.00;100632.91;4919402;29;20799;-89
2022/11/30 01:46:48;;;;;;;6.55;1.20;;;;;;;7.67;100.00;100636.41;4920629;29;20035;-89
2022/11/30 01:49:20;;;;;;;8.77;0.93;;;;;;;7.62;100.00;100633.28;4856300;29;20075;-90
2022/11/30 01:52:11;;;;;;;7.78;1.10;;;;;;;7.62;100.00;100636.75;4904841;29;20051;-89
2022/11/30 01:54:49;;;;;;;15.00;1.52;;;;;;;7.62;100.00;100636.75;4921877;29;20441;-89
2022/11/30 01:57:42;;;;;;;6.18;1.02;;;;;;;7.60;100.00;100640.47;4901876;29;20042;-90
2022/11/30 02:00:14;;;;;;;6.28;1.50;;;;;;;7.57;100.00;100638.91;4904123;29;20702;-89
2022/11/30 02:02:57;;;;;;;5.10;1.42;;;;;;;7.57;100.00;100636.28;4929095;29;20372;-90
2022/11/30 02:05:26;;;;;;;6.97;1.20;;;;;;;7.56;100.00;100637.25;4900043;29;20055;-90
2022/11/30 02:07:56;;;;;;;4.88;1.50;;;;;;;7.55;100.00;100635.53;4899664;29;20074;-89
2022/11/30 02:10:29;;;;;;;6.55;1.10;;;;;;;7.52;100.00;100639.25;4917038;29;20028;-89
2022/11/30 02:13:11;;;;;;;4.95;1.02;;;;;;;7.51;100.00;100639.38;4917875;29;20522;-89
2022/11/30 02:16:14;;;;;;;13.05;2.13;;;;;;;7.47;100.00;100648.47;4918869;29;20040;-89
2022/11/30 02:19:13;;;;;;;6.18;1.73;;;;;;;7.41;100.00;100637.47;4913157;29;20043;-89
2022/11/30 02:22:02;;;;;;;4.97;1.27;;;;;;;7.40;100.00;100635.81;4889854;29;20052;-89
2022/11/30 02:25:26;;;;;;;9.38;1.10;;;;;;;7.42;100.00;100633.88;4888052;29;20042;-89
2022/11/30 02:28:32;;;;;;;9.50;0.98;;;;;;;7.42;100.00;100633.88;4860580;29;20609;-93
2022/11/30 02:31:04;;;;;;;8.70;1.52;;;;;;;7.43;100.00;100639.97;4927556;29;20032;-89
2022/11/30 02:33:35;;;;;;;8.05;1.17;;;;;;;7.45;100.00;100632.81;4919029;29;20043;-89
2022/11/30 02:36:06;;;;;;;5.38;1.38;;;;;;;7.46;100.00;100642.38;4901937;29;20086;-89
2022/11/30 02:38:35;;;;;;;11.30;2.22;;;;;;;7.44;100.00;100641.66;4917754;29;20477;-89
2022/11/30 02:41:03;;;;;;;8.10;0.90;;;;;;;7.42;100.00;100640.94;4903222;29;20031;-90
2022/11/30 02:43:33;;;;;;;9.88;1.40;;;;;;;7.45;100.00;100648.59;4902500;29;20092;-90
2022/11/30 02:46:07;;;;;;;7.80;1.40;;;;;;;7.47;100.00;100640.59;4886744;29;20121;-89
2022/11/30 02:48:49;;;;;;;14.38;1.13;;;;;;;7.49;100.00;100651.81;4933815;29;20047;-89
2022/11/30 02:51:22;;;;;;;6.72;1.45;;;;;;;7.46;100.00;100658.16;4897588;29;20111;-89
2022/11/30 02:53:52;;;;;;;6.03;1.50;;;;;;;7.34;100.00;100652.06;4902610;29;20171;-88
2022/11/30 02:56:23;;;;;;;9.95;2.10;;;;;;;7.31;100.00;100655.75;4887099;29;20046;-90
2022/11/30 02:58:52;;;;;;;12.60;1.70;;;;;;;7.26;100.00;100652.63;4904882;29;20515;-89
2022/11/30 03:01:21;;;;;;;6.55;1.10;;;;;;;7.25;100.00;100655.38;4911569;29;20062;-89
2022/11/30 03:03:49;;;;;;;5.80;1.55;;;;;;;7.23;100.00;100659.94;4902120;29;20043;-90
2022/11/30 03:06:16;;;;;;;10.07;2.22;;;;;;;7.22;100.00;100655.59;4901528;29;20078;-89
2022/11/30 03:08:44;;;;;;;13.07;1.90;;;;;;;7.17;100.00;100654.16;4899329;29;20071;-90
2022/11/30 03:11:12;;;;;;;6.25;2.30;;;;;;;7.17;100.00;100658.59;4907276;29;20128;-90
2022/11/30 03:13:40;;;;;;;8.95;1.50;;;;;;;7.14;100.00;100662.28;4917592;29;20099;-90
2022/11/30 03:16:11;;;;;;;8.70;1.30;;;;;;;7.15;100.00;100658.69;4902475;29;20126;-89
2022/11/30 03:18:41;;;;;;;11.65;1.67;;;;;;;7.16;100.00;100660.41;4895885;29;20043;-89
2022/11/30 03:21:11;;;;;;;3.13;1.00;;;;;;;7.14;100.00;100653.56;4911827;29;20405;-89
2022/11/30 03:23:39;;;;;;;8.00;1.15;;;;;;;7.13;100.00;100660.63;4904383;29;20032;-89
2022/11/30 03:26:08;;;;;;;8.18;1.42;;;;;;;7.15;100.00;100669.22;4898324;29;20123;-89
2022/11/30 03:28:37;;;;;;;7.13;1.20;;;;;;;7.16;100.00;100659.56;4898580;29;20390;-90
2022/11/30 03:31:05;;;;;;;8.57;1.42;;;;;;;7.20;100.00;100671.50;4916367;29;20483;-90
2022/11/30 03:33:32;;;;;;;7.07;1.15;;;;;;;7.19;100.00;100660.16;4902738;29;20032;-89
2022/11/30 03:36:06;;;;;;;8.90;1.00;;;;;;;7.25;100.00;100665.88;4903112;29;20059;-89
2022/11/30 03:38:36;;;;;;;4.43;1.13;;;;;;;7.25;100.00;100663.25;4914020;29;20035;-90
2022/11/30 03:41:09;;;;;;;6.93;1.48;;;;;;;7.28;100.00;100660.38;4895156;29;20458;-90
2022/11/30 03:43:37;;;;;;;12.57;1.27;;;;;;;7.26;100.00;100664.94;4912131;29;20401;-89
2022/11/30 03:46:05;;;;;;;4.97;0.82;;;;;;;7.26;100.00;100668.41;4910338;29;20480;-90
2022/11/30 03:48:34;;;;;;;16.58;1.67;;;;;;;7.23;100.00;100660.75;4905017;29;20110;-90
2022/11/30 03:51:03;;;;;;;11.88;1.15;;;;;;;7.23;100.00;100658.13;4897447;29;20031;-90
2022/11/30 03:53:31;;;;;;;6.20;1.02;;;;;;;7.23;100.00;100662.56;4918266;29;20074;-89
2022/11/30 03:56:02;;;;;;;9.25;1.23;;;;;;;7.23;100.00;100663.38;4876410;29;20506;-90
2022/11/30 03:58:30;;;;;;;4.15;0.73;;;;;;;7.23;100.00;100666.00;4897322;29;20031;-89
2022/11/30 04:01:07;;;;;;;9.35;1.23;;;;;;;7.25;100.00;100665.88;4918581;29;20041;-89
2022/11/30 04:03:35;;;;;;;12.18;1.20;;;;;;;7.19;100.00;100660.16;4892960;29;20162;-90
2022/11/30 04:06:04;;;;;;;6.18;1.05;;;;;;;7.21;100.00;100660.03;4884327;29;20496;-89
2022/11/30 04:08:32;;;;;;;14.52;1.60;;;;;;;7.17;100.00;100664.69;4912390;29;20039;-89
2022/11/30 04:11:02;;;;;;;18.15;2.58;;;;;;;7.18;100.00;100668.97;4906831;29;20028;-90
2022/11/30 04:13:31;;;;;;;8.52;1.38;;;;;;;7.18;100.00;100676.06;4901806;29;20126;-89
2022/11/30 04:15:59;;;;;;;13.15;1.92;;;;;;;7.17;100.00;100677.00;4934630;29;20062;-90
2022/11/30 04:18:28;;;;;;;6.88;1.63;;;;;;;7.18;100.00;100676.88;4906690;29;20042;-90
2022/11/30 04:20:59;;;;;;;6.47;1.42;;;;;;;7.19;100.00;100669.84;4901008;29;20039;-89
2022/11/30 04:23:31;;;;;;;9.35;1.42;;;;;;;7.20;100.00;100668.88;4899201;29;20040;-89
2022/11/30 04:26:11;;;;;;;15.82;1.75;;;;;;;7.25;100.00;100679.88;4918459;29;20035;-89
2022/11/30 04:28:40;;;;;;;8.68;1.00;;;;;;;7.27;100.00;100675.34;4898547;29;20044;-89
2022/11/30 04:31:08;;;;;;;7.47;1.50;;;;;;;7.25;100.00;100674.63;4902055;29;20040;-90
2022/11/30 04:33:36;;;;;;;21.83;2.88;;;;;;;7.29;100.00;100675.22;4912909;29;20032;-90
2022/11/30 04:36:06;;;;;;;11.35;1.42;;;;;;;7.30;100.00;100677.75;4913785;29;20040;-89
2022/11/30 04:38:35;;;;;;;12.73;1.27;;;;;;;7.31;100.00;100687.28;4887198;29;20038;-89
2022/11/30 04:41:08;;;;;;;7.13;0.68;;;;;;;7.34;100.00;100695.91;4887145;29;20109;-89
2022/11/30 04:43:37;;;;;;;8.05;0.95;;;;;;;7.35;100.00;100694.94;4902103;29;20560;-89
2022/11/30 04:46:07;;;;;;;12.77;1.33;;;;;;;7.35;100.00;100698.44;4928539;29;20039;-90
2022/11/30 04:48:36;;;;;;;12.20;1.17;;;;;;;7.36;100.00;100696.66;4882422;29;20035;-88
2022/11/30 04:51:06;;;;;;;13.15;1.65;;;;;;;7.37;100.00;100690.41;4903926;29;20031;-90
2022/11/30 04:53:36;;;;;;;7.90;1.77;;;;;;;7.39;100.00;100699.03;4899438;29;20031;-89
2022/11/30 04:56:11;;;;;;;9.00;1.48;;;;;;;7.42;100.00;100699.63;4900975;29;20384;-89
2022/11/30 04:58:40;;;;;;;11.55;1.52;;;;;;;7.43;100.00;100697.84;4900521;29;20050;-90
2022/11/30 05:01:09;;;;;;;5.95;0.80;;;;;;;7.45;100.00;100699.38;4901557;29;20044;-90
2022/11/30 05:03:37;;;;;;;14.38;1.35;;;;;;;7.47;100.00;100703.72;4911730;29;20175;-90
2022/11/30 05:06:07;;;;;;;14.68;0.98;;;;;;;7.53;100.00;100704.06;4917946;29;20047;-89
2022/11/30 05:08:37;;;;;;;18.20;1.98;;;;;;;7.55;100.00;100717.09;4900791;29;20040;-89
2022/11/30 05:11:05;;;;;;;11.93;1.30;;;;;;;7.57;100.00;100713.41;4911182;29;20046;-89
2022/11/30 05:13:33;;;;;;;9.98;1.27;;;;;;;7.57;100.00;100700.25;4933379;29;20031;-90
2022/11/30 05:16:01;;;;;;;15.15;2.15;;;;;;;7.64;100.00;100707.66;4903869;29;20055;-89
2022/11/30 05:18:30;;;;;;;11.27;1.58;;;;;;;7.64;100.00;100705.88;4906252;29;20031;-89
2022/11/30 05:20:58;;;;;;;12.40;1.63;;;;;;;7.67;100.00;100715.31;4915903;29;20046;-90
2022/11/30 05:23:25;;;;;;;7.88;1.35;;;;;;;7.67;100.00;100721.44;4898866;29;20119;-90
2022/11/30 05:25:53;;;;;;;13.25;2.25;;;;;;;7.71;100.00;100708.03;4884445;29;20039;-90
2022/11/30 05:28:21;;;;;;;11.90;1.30;;;;;;;7.72;100.00;100725.50;4907761;29;20072;-90
2022/11/30 05:30:49;;;;;;;15.35;1.30;;;;;;;7.74;100.00;100723.59;4881874;29;20078;-89
2022/11/30 05:33:16;;;;;;;13.98;1.55;;;;;;;7.75;100.00;100725.25;4899335;29;20484;-89
2022/11/30 05:35:45;;;;;;;15.88;1.35;;;;;;;7.76;100.00;100727.75;4881500;29;20086;-89
2022/11/30 05:38:14;;;;;;;12.32;1.77;;;;;;;7.75;100.00;100726.09;4915485;29;20137;-90
2022/11/30 05:40:42;;;;;;;9.43;1.30;;;;;;;7.75;100.00;100720.00;4887769;29;20044;-89
2022/11/30 05:43:10;;;;;;;13.02;1.67;;;;;;;7.79;100.00;100724.91;4900800;29;20062;-89
2022/11/30 05:45:37;;;;;;;11.18;1.75;;;;;;;7.78;100.00;100723.22;4899881;29;20036;-89
2022/11/30 05:48:05;;;;;;;12.82;1.58;;;;;;;7.81;100.00;100727.41;4898046;29;20044;-89
2022/11/30 05:50:33;;;;;;;9.35;1.60;;;;;;;7.80;100.00;100723.94;4914860;29;20075;-89
2022/11/30 05:53:01;;;;;;;11.60;1.50;;;;;;;7.82;100.00;100723.81;4901569;29;20039;-90
2022/11/30 05:55:31;;;;;;;12.75;1.95;;;;;;;7.83;100.00;100728.13;4905150;29;20373;-89
2022/11/30 05:57:58;;;;;;;10.45;1.98;;;;;;;7.88;100.00;100726.00;4904000;29;20055;-89
2022/11/30 06:00:26;;;;;;;18.65;1.75;;;;;;;7.88;100.00;100723.34;4904084;29;20351;-89
2022/11/30 06:02:56;;;;;;;17.35;1.83;;;;;;;7.91;100.00;100724.91;4896330;29;20520;-90
2022/11/30 06:05:25;;;;;;;12.90;1.58;;;;;;;7.94;100.00;100716.75;4905251;29;20480;-90
2022/11/30 06:07:55;;;;;;;8.70;1.55;;;;;;;7.98;100.00;100723.44;4919899;29;20044;-90
2022/11/30 06:10:26;;;;;;;18.85;2.03;;;;;;;8.01;100.00;100717.94;4918417;29;20031;-89
2022/11/30 06:12:55;;;;;;;8.90;1.67;;;;;;;8.02;100.00;100718.78;4913523;29;20135;-90
2022/11/30 06:15:24;;;;;;;10.13;1.67;;;;;;;8.03;100.00;100713.41;4915417;29;20481;-89
2022/11/30 06:17:55;;;;;;;11.50;2.60;;;;;;;8.06;100.00;100720.22;4895382;29;20032;-90
2022/11/30 06:20:25;;;;;;;15.45;2.03;;;;;;;8.10;100.00;100728.72;4917637;29;20040;-89
2022/11/30 06:22:56;;;;;;;9.52;1.80;;;;;;;8.12;100.00;100730.25;4933393;29;20027;-90
2022/11/30 06:25:27;;;;;;;13.30;1.85;;;;;;;8.16;100.00;100736.13;4918272;29;21216;-90
2022/11/30 06:27:56;;;;;;;10.48;1.40;;;;;;;8.17;100.00;100732.56;4909453;29;20040;-89
2022/11/30 06:30:26;;;;;;;15.55;2.25;;;;;;;8.20;100.00;100737.56;4905899;29;20043;-89
2022/11/30 06:32:56;;;;;;;11.25;2.03;;;;;;;8.23;100.00;100739.97;4905773;29;20123;-89
2022/11/30 06:35:26;;;;;;;13.20;1.85;;;;;;;8.25;100.00;100743.28;4903390;29;20035;-90
2022/11/30 06:37:59;;;;;;;28.50;2.05;;;;;;;8.27;100.00;100743.16;4917219;29;20070;-90
2022/11/30 06:40:29;;;;;;;11.70;2.03;;;;;;;8.29;100.00;100746.53;4918603;29;20040;-89
2022/11/30 06:42:58;;;;;;;13.63;3.45;;;;;;;8.30;100.00;100741.13;4928615;29;20091;-90
2022/11/30 06:45:26;;;;;;;19.23;2.10;;;;;;;8.30;100.00;100743.78;4887093;29;20034;-89
2022/11/30 06:47:55;;;;;;;9.80;1.50;;;;;;;8.36;100.00;100741.63;4882040;29;20054;-90
2022/11/30 06:50:22;;;;;;;13.52;2.42;;;;;;;8.36;100.00;100749.53;4917619;29;20036;-89
2022/11/30 06:52:52;;;;;;;9.93;1.42;;;;;;;8.40;100.00;100750.94;4905807;29;20044;-90
2022/11/30 06:55:23;;;;;;;10.82;2.00;;;;;;;8.41;100.00;100753.44;4893810;29;20535;-89
2022/11/30 06:57:53;;;;;;;11.90;2.63;;;;;;;8.44;100.00;100757.66;4915177;29;20071;-90
2022/11/30 07:00:22;;;;;;;9.23;1.70;;;;;;;8.46;100.00;100755.72;4922064;29;20031;-89
2022/11/30 07:02:50;;;;;;;12.70;1.70;;;;;;;8.46;100.00;100754.91;4926908;29;20035;-90
2022/11/30 07:05:19;;;;;;;19.38;1.77;;;;;;;8.49;100.00;100760.75;4913362;29;20085;-89
2022/11/30 07:07:49;;;;;;;12.75;2.58;;;;;;;8.52;100.00;100759.69;4922517;29;20058;-89
2022/11/30 07:10:18;;;;;;;14.13;1.77;;;;;;;8.52;100.00;100762.31;4901411;29;20047;-89
2022/11/30 07:12:46;;;;;;;10.73;2.22;;;;;;;8.52;100.00;100760.50;4893283;29;20095;-90
2022/11/30 07:15:16;;;;;;;7.15;1.70;;;;;;;8.55;100.00;100759.47;4921329;29;20042;-89
2022/11/30 07:17:45;;;;;;;16.63;1.73;;;;;;;8.56;100.00;100758.50;4913698;29;20038;-90
2022/11/30 07:20:14;;;;;;;12.77;2.08;;;;;;;8.60;100.00;100762.53;4906667;29;20045;-90
2022/11/30 07:22:42;;;;;;;10.60;2.08;;;;;;;8.60;100.00;100765.19;4910255;29;20064;-90
2022/11/30 07:27:56;;;;;;;18.05;2.25;;;;;;;8.63;100.00;100758.84;4922298;29;20148;-89
2022/11/30 07:30:24;;;;;;;14.65;2.13;;;;;;;8.67;100.00;100763.75;4906814;29;20043;-89
2022/11/30 07:32:51;;;;;;;12.90;1.40;;;;;;;8.68;100.00;100769.81;4919070;29;20122;-89
2022/11/30 07:35:19;;;;;;;13.57;2.65;;;;;;;8.71;100.00;100777.50;4916634;29;20039;-89
2022/11/30 07:37:47;;;;;;;15.50;1.77;;;;;;;8.69;100.00;100777.59;4930593;29;20536;-89
2022/11/30 07:40:17;;;;;;;15.65;2.00;;;;;;;8.75;100.00;100780.72;4915619;29;20040;-89
2022/11/30 07:42:47;;;;;;;15.80;2.35;;;;;;;8.76;100.00;100785.03;4884418;29;20035;-89
2022/11/30 07:45:15;;;;;;;18.77;1.70;;;;;;;8.77;100.00;100779.66;4912491;29;20066;-89
2022/11/30 07:47:43;;;;;;;9.20;1.92;;;;;;;8.76;100.00;100774.50;4886933;29;20789;-89
2022/11/30 07:50:11;;;;;;;16.90;1.80;;;;;;;8.80;100.00;100786.47;4929363;29;20039;-88
2022/11/30 07:52:38;;;;;;;12.05;1.60;;;;;;;8.78;100.00;100794.50;4919459;29;20131;-89
2022/11/30 07:55:07;;;;;;;6.85;2.08;;;;;;;8.80;100.00;100797.84;4927235;29;20035;-89
2022/11/30 07:57:34;;;;;;;17.40;2.40;;;;;;;8.80;100.00;100799.63;4916772;29;20154;-89
2022/11/30 08:00:02;;;;;;;16.75;2.17;;;;;;;8.83;100.00;100803.81;4897880;29;20092;-89
2022/11/30 08:02:38;;;;;;;14.88;1.77;;;;;;;8.81;100.00;100804.78;4917902;29;20425;-89
2022/11/30 08:05:10;;;;;;;11.82;1.80;;;;;;;8.90;100.00;100820.81;4915225;29;20039;-89
2022/11/30 08:07:40;;;;;;;11.68;1.67;;;;;;;8.86;100.00;100814.13;4926845;29;20040;-89
2022/11/30 08:10:11;;;;;;;17.20;2.15;;;;;;;8.89;100.00;100821.78;4928253;29;20445;-89
2022/11/30 08:12:41;;;;;;;15.13;1.77;;;;;;;8.89;100.00;100835.78;4897157;29;20146;-89
2022/11/30 08:15:11;;;;;;;11.40;2.30;;;;;;;8.90;100.00;100836.66;4904362;29;20388;-89
2022/11/30 08:21:47;;;;;;;9.48;1.55;;;;;;;8.90;100.00;100857.75;4935927;29;20043;-88
2022/11/30 08:24:17;;;;;;;18.02;2.50;;;;;;;8.92;100.00;100864.56;4907147;29;20039;-89
2022/11/30 08:26:50;;;;;;;14.73;1.60;;;;;;;8.96;100.00;100874.84;4885133;29;20039;-89
2022/11/30 08:29:18;;;;;;;14.25;1.95;;;;;;;8.97;100.00;100873.88;4888237;29;20054;-89
2022/11/30 08:31:45;;;;;;;15.75;1.70;;;;;;;8.99;100.00;100872.81;4915183;29;20039;-89
2022/11/30 08:34:13;;;;;;;14.68;2.38;;;;;;;9.00;100.00;100873.66;4923796;29;20400;-89
2022/11/30 08:36:42;;;;;;;14.38;2.08;;;;;;;9.05;100.00;100880.22;4900007;29;20048;-89
2022/11/30 08:39:12;;;;;;;11.80;2.53;;;;;;;9.03;100.00;100884.78;4902349;29;20074;-89
2022/11/30 08:41:42;;;;;;;14.60;1.98;;;;;;;9.05;100.00;100885.50;4926318;29;20046;-89
2022/11/30 08:44:12;;;;;;;11.40;1.90;;;;;;;9.08;100.00;100887.03;4900155;29;20066;-89
2022/11/30 08:46:41;;;;;;;16.80;2.10;;;;;;;9.08;100.00;100888.88;4913067;29;20039;-89
2022/11/30 08:49:08;;;;;;;10.57;1.45;;;;;;;9.09;100.00;100886.09;4904720;29;20121;-89
2022/11/30 08:51:36;;;;;;;16.77;2.17;;;;;;;9.11;100.00;100888.63;4911332;29;20114;-88
2022/11/30 08:54:04;;;;;;;18.67;1.73;;;;;;;9.10;100.00;100886.91;4932471;29;20086;-89
2022/11/30 08:56:31;;;;;;;16.75;2.00;;;;;;;9.15;100.00;100887.41;4901477;29;20397;-89
2022/11/30 08:58:59;;;;;;;10.20;1.70;;;;;;;9.12;100.00;100888.50;4913313;29;20496;-88
2022/11/30 09:01:27;;;;;;;7.95;1.48;;;;;;;9.15;100.00;100890.03;4913053;29;20094;-89
2022/11/30 09:03:56;;;;;;;14.80;1.83;;;;;;;9.16;100.00;100900.47;4930930;29;20039;-89
2022/11/30 09:06:29;;;;;;;17.30;2.10;;;;;;;9.20;100.00;100895.78;4898026;29;20032;-89
2022/11/30 09:08:58;;;;;;;21.50;2.20;;;;;;;9.19;100.00;100899.34;4900205;29;20489;-89
2022/11/30 09:11:28;;;;;;;16.80;2.33;;;;;;;9.21;100.00;100904.50;4905244;29;20057;-89
2022/11/30 09:13:58;;;;;;;9.73;1.92;;;;;;;9.20;100.00;100901.06;4896824;29;20039;-89
2022/11/30 09:16:27;;;;;;;13.18;2.38;;;;;;;9.19;100.00;100907.28;4921299;29;20035;-89
2022/11/30 09:18:55;;;;;;;15.57;2.20;;;;;;;9.19;100.00;100909.91;4915949;29;20070;-89
2022/11/30 09:21:24;;;;;;;15.05;2.33;;;;;;;9.20;100.00;100911.59;4884617;29;20086;-90
2022/11/30 09:23:53;;;;;;;18.48;2.63;;;;;;;9.17;100.00;100909.22;4902859;29;20361;-90
2022/11/30 09:26:23;;;;;;;12.73;2.35;;;;;;;9.23;100.00;100927.19;4903698;29;20047;-89
2022/11/30 09:28:52;;;;;;;13.73;1.98;;;;;;;9.21;100.00;100926.47;4910833;29;20031;-89
2022/11/30 09:31:23;;;;;;;14.90;2.42;;;;;;;9.23;100.00;100939.53;4920392;29;20373;-89
2022/11/30 09:33:51;;;;;;;10.57;2.15;;;;;;;9.21;100.00;100941.44;4890944;29;20508;-89
2022/11/30 09:36:22;;;;;;;11.70;2.05;;;;;;;9.22;100.00;100948.41;4918752;29;20036;-89
2022/11/30 09:38:53;;;;;;;16.80;2.28;;;;;;;9.24;100.00;100955.22;4919688;29;20043;-88
2022/11/30 09:41:52;;;;;;;8.00;1.98;;;;;;;9.23;100.00;100952.72;4888482;29;20035;-89
2022/11/30 09:44:49;;;;;;;15.23;1.88;;;;;;;9.25;100.00;100956.91;4888423;29;20051;-89
2022/11/30 09:47:31;;;;;;;15.57;2.38;;;;;;;9.23;100.00;100955.34;4904174;29;20047;-88
2022/11/30 09:50:16;;;;;;;18.15;1.80;;;;;;;9.22;100.00;100954.50;4919337;29;20032;-89
2022/11/30 09:52:52;;;;;;;11.52;1.90;;;;;;;9.30;100.00;100956.56;4921022;29;20501;-89
2022/11/30 09:55:43;;;;;;;12.38;2.15;;;;;;;9.30;100.00;100961.81;4916049;29;20035;-90
2022/11/30 09:58:39;;;;;;;9.65;1.98;;;;;;;9.31;100.00;100963.50;4922285;29;20035;-89
2022/11/30 10:01:19;;;;;;;15.50;2.10;;;;;;;9.32;100.00;100969.63;4890514;29;20078;-89
2022/11/30 10:03:49;;;;;;;10.65;2.20;;;;;;;9.33;100.00;100971.28;4918480;29;20489;-90
2022/11/30 10:06:29;;;;;;;10.90;2.70;;;;;;;9.38;100.00;100977.84;4919009;29;20055;-89
2022/11/30 10:09:09;;;;;;;10.13;2.25;;;;;;;9.37;100.00;100976.19;4902862;29;20040;-89
2022/11/30 10:12:07;;;;;;;12.85;1.95;;;;;;;9.39;100.00;100986.63;4919906;29;20050;-88
2022/11/30 10:14:47;;;;;;;9.85;1.90;;;;;;;9.41;100.00;100982.06;4905320;29;20508;-89
2022/11/30 10:17:34;;;;;;;13.20;2.20;;;;;;;9.44;100.00;100984.47;4936632;29;20451;-89
2022/11/30 10:20:29;;;;;;;14.02;2.80;;;;;;;9.42;100.00;100979.31;4909231;29;20102;-89
2022/11/30 10:23:44;;;;;;;20.40;2.10;;;;;;;9.42;100.00;100979.31;4891033;29;20472;-89
2022/11/30 10:26:23;;;;;;;8.52;2.45;;;;;;;9.46;100.00;100984.34;4903185;29;20044;-89
2022/11/30 10:28:58;;;;;;;10.18;1.52;;;;;;;9.46;100.00;100982.50;4913684;29;20042;-89
2022/11/30 10:31:33;;;;;;;13.82;2.00;;;;;;;9.46;100.00;100981.69;4897510;29;20071;-88
2022/11/30 10:34:21;;;;;;;8.48;1.88;;;;;;;9.49;100.00;100992.81;4905667;29;20059;-88
2022/11/30 10:36:59;;;;;;;9.02;1.85;;;;;;;9.53;100.00;100993.41;4919015;29;20056;-91
2022/11/30 10:39:37;;;;;;;9.85;2.20;;;;;;;9.54;100.00;100992.44;4903151;29;20059;-89
2022/11/30 10:42:35;;;;;;;9.82;2.10;;;;;;;9.55;100.00;100996.78;4913449;29;20384;-90
2022/11/30 10:45:09;;;;;;;12.10;1.75;;;;;;;9.54;100.00;101001.22;4897111;29;20047;-89
2022/11/30 10:47:59;;;;;;;10.18;1.80;;;;;;;9.59;100.00;101000.03;4926165;29;20045;-91
2022/11/30 10:50:30;;;;;;;15.15;2.00;;;;;;;9.62;100.00;100997.13;4908381;29;20044;-88
2022/11/30 10:53:01;;;;;;;7.38;1.88;;;;;;;9.66;100.00;101009.09;4899621;29;20031;-89
2022/11/30 10:55:35;;;;;;;9.63;2.20;;;;;;;9.70;100.00;101009.72;4914903;29;20046;-89
2022/11/30 10:58:12;;;;;;;11.93;1.77;;;;;;;9.71;100.00;101008.72;4910491;29;20039;-88
2022/11/30 11:00:48;;;;;;;14.80;2.08;;;;;;;9.74;100.00;101003.19;4932224;29;20035;-88
2022/11/30 11:03:24;;;;;;;15.43;2.45;;;;;;;9.74;100.00;101006.69;4905957;29;20031;-88
2022/11/30 11:06:03;;;;;;;7.47;1.45;;;;;;;9.75;100.00;101002.22;4900853;29;20453;-88
2022/11/30 11:08:32;;;;;;;15.57;2.53;;;;;;;9.77;100.00;101002.94;4902364;29;20120;-88
2022/11/30 11:11:00;;;;;;;9.82;1.95;;;;;;;9.79;100.00;101014.25;4889528;29;20038;-88
2022/11/30 11:13:40;;;;;;;8.80;1.95;;;;;;;9.77;100.00;101009.09;4917925;29;20046;-89
2022/11/30 11:16:13;;;;;;;14.73;1.80;;;;;;;9.77;100.00;101006.44;4904042;29;20107;-88
2022/11/30 11:18:54;;;;;;;8.90;1.75;;;;;;;9.79;100.00;100996.56;4905271;29;20044;-89
2022/11/30 11:21:24;;;;;;;13.05;2.40;;;;;;;9.75;100.00;100989.88;4923445;29;20401;-89
2022/11/30 11:23:57;;;;;;;11.48;2.13;;;;;;;9.75;100.00;101005.72;4936603;29;20043;-88
2022/11/30 11:26:30;;;;;;;11.52;2.78;;;;;;;9.75;100.00;101008.34;4899320;29;20040;-89
2022/11/30 11:28:59;;;;;;;16.35;2.50;;;;;;;9.79;100.00;101008.97;4917617;29;20035;-89
2022/11/30 11:31:45;;;;;;;11.02;2.00;;;;;;;9.79;100.00;101004.50;4917589;29;20094;-89
2022/11/30 11:34:35;;;;;;;15.35;2.25;;;;;;;9.75;100.00;101000.44;4932150;29;20039;-88
2022/11/30 11:37:06;;;;;;;14.02;1.88;;;;;;;9.76;100.00;101009.22;4929819;29;20048;-88
2022/11/30 11:39:36;;;;;;;12.00;3.05;;;;;;;9.78;100.00;101017.81;4920398;29;20039;-88
2022/11/30 11:42:16;;;;;;;15.23;2.65;;;;;;;9.78;100.00;101013.38;4886094;29;20399;-88
2022/11/30 11:44:44;;;;;;;9.65;1.90;;;;;;;9.75;100.00;101007.50;4911369;29;20078;-89
2022/11/30 11:47:37;;;;;;;11.80;1.77;;;;;;;9.74;100.00;101006.69;4904049;29;20094;-89
2022/11/30 11:50:29;;;;;;;15.18;2.47;;;;;;;9.74;100.00;101009.34;4904591;29;20031;-89